createdAt,value
2023-04-24T00:03:30.392Z,1.30
2023-04-24T00:08:33.775Z,0.50
2023-04-24T00:13:36.984Z,0.50
2023-04-24T00:18:42.454Z,0.43
2023-04-24T00:23:45.985Z,1.23
2023-04-24T00:28:49.443Z,0.50
2023-04-24T00:33:54.173Z,1.33
2023-04-24T00:38:57.552Z,4.00
2023-04-24T00:44:01.004Z,0.50
2023-04-24T00:49:06.849Z,0.30
2023-04-24T00:54:10.040Z,1.33
2023-04-24T00:59:14.237Z,0.60
2023-04-24T01:04:20.196Z,0.60
2023-04-24T01:09:25.695Z,0.93
2023-04-24T01:14:29.174Z,0.53
2023-04-24T01:19:33.689Z,1.37
2023-04-24T01:24:38.918Z,2.43
2023-04-24T01:29:43.011Z,0.93
2023-04-24T01:34:47.665Z,0.83
2023-04-24T01:39:52.492Z,0.70
2023-04-24T01:44:56.668Z,0.80
2023-04-24T01:50:00.696Z,1.00
2023-04-24T01:55:06.381Z,0.80
2023-04-24T02:00:12.348Z,0.93
2023-04-24T02:05:18.114Z,2.77
2023-04-24T02:10:23.031Z,1.63
2023-04-24T02:15:26.108Z,1.47
2023-04-24T02:20:29.625Z,0.73
2023-04-24T02:25:35.384Z,0.70
2023-04-24T02:30:38.659Z,2.10
2023-04-24T02:35:41.864Z,2.00
2023-04-24T02:40:46.449Z,2.57
2023-04-24T02:45:49.995Z,3.03
2023-04-24T02:50:54.079Z,0.40
2023-04-24T02:55:58.886Z,0.50
2023-04-24T03:01:02.368Z,1.33
2023-04-24T03:06:06.784Z,0.43
2023-04-24T03:11:11.507Z,0.60
2023-04-24T03:16:15.600Z,0.73
2023-04-24T03:21:18.991Z,1.57
2023-04-24T03:26:23.742Z,0.83
2023-04-24T03:31:39.186Z,0.53
2023-04-24T03:36:43.120Z,0.50
2023-04-24T03:41:47.795Z,0.63
2023-04-24T03:46:55.321Z,2.80
2023-04-24T03:52:01.448Z,0.67
2023-04-24T03:57:06.995Z,1.07
2023-04-24T04:02:13.723Z,0.60
2023-04-24T04:07:18.630Z,1.13
2023-04-24T04:12:23.615Z,0.60
2023-04-24T04:17:26.790Z,1.60
2023-04-24T04:22:30.116Z,0.50
2023-04-24T04:27:38.654Z,0.70
2023-04-24T04:32:47.804Z,0.57
2023-04-24T04:37:52.328Z,1.00
2023-04-24T04:43:17.158Z,1.20
2023-04-24T04:48:26.830Z,0.73
2023-04-24T04:53:31.839Z,1.40
2023-04-24T04:58:36.657Z,4.10
2023-04-24T05:03:41.934Z,0.40
2023-04-24T05:08:49.785Z,0.77
2023-04-24T05:14:18.945Z,0.60
2023-04-24T05:19:22.659Z,0.97
2023-04-24T05:24:25.989Z,0.83
2023-04-24T05:29:52.305Z,1.73
2023-04-24T05:34:55.730Z,0.60
2023-04-24T05:39:59.508Z,0.40
2023-04-24T05:45:05.469Z,0.50
2023-04-24T05:50:09.956Z,0.50
2023-04-24T05:55:13.241Z,0.60
2023-04-24T06:00:20.679Z,1.70
2023-04-24T06:05:32.540Z,0.50
2023-04-24T06:10:35.787Z,0.50
2023-04-24T06:15:41.734Z,1.50
2023-04-24T06:20:48.820Z,0.40
2023-04-24T06:25:52.333Z,0.47
2023-04-24T06:30:57.165Z,0.63
2023-04-24T06:36:00.440Z,0.60
2023-04-24T06:41:04.438Z,0.77
2023-04-24T06:46:09.131Z,0.30
2023-04-24T06:51:12.430Z,0.67
2023-04-24T06:56:15.663Z,0.50
2023-04-24T07:01:20.572Z,0.40
2023-04-24T07:06:24.676Z,0.40
2023-04-24T07:11:30.219Z,1.60
2023-04-24T07:16:35.200Z,0.40
2023-04-24T07:21:38.551Z,0.30
2023-04-24T07:26:41.946Z,0.47
2023-04-24T07:31:46.782Z,0.47
2023-04-24T07:36:50.122Z,0.60
2023-04-24T07:41:53.410Z,0.93
2023-04-24T07:46:58.629Z,0.70
2023-04-24T07:52:03.615Z,0.87
2023-04-24T07:57:07.792Z,0.80
2023-04-24T08:02:12.992Z,0.50
2023-04-24T08:07:16.174Z,1.63
2023-04-24T08:12:19.494Z,0.40
2023-04-24T08:17:24.105Z,0.50
2023-04-24T08:22:27.554Z,1.70
2023-04-24T08:27:31.008Z,0.80
2023-04-24T08:32:35.922Z,0.67
2023-04-24T08:37:39.747Z,0.63
2023-04-24T08:42:45.413Z,0.60
2023-04-24T08:47:50.536Z,0.70
2023-04-24T08:52:55.172Z,2.50
2023-04-24T08:57:59.792Z,2.07
2023-04-24T09:03:06.937Z,1.50
2023-04-24T09:08:12.257Z,0.50
2023-04-24T09:13:16.740Z,0.53
2023-04-24T09:18:21.406Z,0.60
2023-04-24T09:23:24.596Z,0.87
2023-04-24T09:28:29.067Z,0.63
2023-04-24T09:33:33.724Z,1.43
2023-04-24T09:38:38.045Z,1.03
2023-04-24T09:43:41.358Z,0.70
2023-04-24T09:48:46.164Z,2.40
2023-04-24T09:53:49.519Z,0.40
2023-04-24T09:59:06.813Z,0.70
2023-04-24T10:04:18.391Z,1.13
2023-04-24T10:09:23.371Z,0.70
2023-04-24T10:14:27.557Z,0.77
2023-04-24T10:19:33.091Z,0.80
2023-04-24T10:24:38.176Z,0.80
2023-04-24T10:29:42.360Z,0.80
2023-04-24T10:34:47.260Z,0.60
2023-04-24T10:39:52.357Z,0.80
2023-04-24T10:44:57.368Z,0.60
2023-04-24T10:50:04.092Z,1.07
2023-04-24T10:55:08.751Z,0.50
2023-04-24T11:00:22.777Z,1.00
2023-04-24T11:05:54.536Z,1.83
2023-04-24T11:11:00.171Z,0.70
2023-04-24T11:16:17.097Z,0.70
2023-04-24T11:21:22.015Z,0.73
2023-04-24T11:26:25.823Z,1.03
2023-04-24T11:31:42.193Z,0.67
2023-04-24T11:36:47.583Z,0.50
2023-04-24T11:41:51.173Z,0.50
2023-04-24T11:46:54.368Z,1.77
2023-04-24T11:52:01.240Z,0.70
2023-04-24T11:57:08.115Z,0.90
2023-04-24T12:02:11.592Z,0.90
2023-04-24T12:07:17.324Z,0.90
2023-04-24T12:12:21.179Z,0.80
2023-04-24T12:17:29.451Z,1.20
2023-04-24T12:22:51.673Z,0.60
2023-04-24T12:27:57.135Z,0.77
2023-04-24T12:33:02.223Z,0.60
2023-04-24T12:38:11.058Z,3.23
2023-04-24T12:43:18.903Z,0.80
2023-04-24T12:48:23.318Z,0.93
2023-04-24T12:53:29.596Z,0.60
2023-04-24T12:58:32.854Z,0.47
2023-04-24T13:03:36.238Z,0.60
2023-04-24T13:08:40.890Z,0.40
2023-04-24T13:13:44.342Z,1.73
2023-04-24T13:18:47.595Z,0.63
2023-04-24T13:23:52.917Z,0.43
2023-04-24T13:28:56.122Z,0.40
2023-04-24T13:33:59.358Z,0.50
2023-04-24T13:39:05.649Z,0.30
2023-04-24T13:44:08.933Z,0.30
2023-04-24T13:49:12.575Z,0.40
2023-04-24T13:54:17.277Z,0.30
2023-04-24T13:59:22.291Z,4.23
2023-04-24T14:04:25.919Z,0.30
2023-04-24T14:09:30.824Z,0.30
2023-04-24T14:14:34.138Z,0.50
2023-04-24T14:19:37.991Z,1.30
2023-04-24T14:24:43.698Z,0.30
2023-04-24T14:29:47.524Z,1.30
2023-04-24T14:34:51.579Z,0.30
2023-04-24T14:40:13.548Z,0.20
2023-04-24T14:45:21.234Z,0.30
2023-04-24T14:50:29.153Z,0.30
2023-04-24T14:55:37.498Z,0.30
2023-04-24T15:00:41.289Z,0.60
2023-04-24T15:05:44.763Z,0.30
2023-04-24T15:10:50.507Z,0.30
2023-04-24T15:15:54.320Z,0.30
2023-04-24T15:20:58.214Z,2.73
2023-04-24T15:26:03.723Z,0.20
2023-04-24T15:31:08.069Z,0.30
2023-04-24T15:36:13.007Z,0.30
2023-04-24T15:41:17.920Z,0.20
2023-04-24T15:46:21.615Z,0.20
2023-04-24T15:51:24.920Z,0.30
2023-04-24T15:56:31.361Z,0.30
2023-04-24T16:01:35.595Z,0.30
2023-04-24T16:06:39.574Z,0.30
2023-04-24T16:11:45.599Z,0.40
2023-04-24T16:16:49.369Z,0.73
2023-04-24T16:21:54.418Z,0.50
2023-04-24T16:26:59.927Z,0.80
2023-04-24T16:32:03.926Z,4.10
2023-04-24T16:37:07.649Z,1.80
2023-04-24T16:42:14.407Z,0.83
2023-04-24T16:47:18.277Z,0.90
2023-04-24T16:52:23.060Z,1.57
2023-04-24T16:57:28.611Z,1.30
2023-04-24T17:02:32.428Z,1.67
2023-04-24T17:07:36.392Z,1.60
2023-04-24T17:12:42.111Z,1.60
2023-04-24T17:17:46.542Z,1.70
2023-04-24T17:22:50.588Z,1.67
2023-04-24T17:27:55.471Z,1.30
2023-04-24T17:32:58.903Z,1.20
2023-04-24T17:38:03.988Z,1.53
2023-04-24T17:43:08.722Z,2.00
2023-04-24T17:48:12.151Z,1.50
2023-04-24T17:53:15.825Z,1.63
2023-04-24T17:58:20.984Z,3.77
2023-04-24T18:03:24.845Z,3.67
2023-04-24T18:08:28.537Z,1.87
2023-04-24T18:13:33.742Z,1.67
2023-04-24T18:18:38.753Z,1.97
2023-04-24T18:23:42.617Z,1.70
2023-04-24T18:28:48.140Z,3.87
2023-04-24T18:33:53.476Z,1.60
2023-04-24T18:38:56.932Z,3.43
2023-04-24T18:44:02.550Z,6.27
2023-04-24T18:49:06.255Z,5.07
2023-04-24T18:54:10.150Z,3.00
2023-04-24T18:59:14.892Z,1.80
2023-04-24T19:04:20.909Z,4.10
2023-04-24T19:09:24.815Z,1.50
2023-04-24T19:14:30.487Z,1.70
2023-04-24T19:19:34.836Z,1.63
2023-04-24T19:24:39.167Z,1.73
2023-04-24T19:29:44.033Z,3.60
2023-04-24T19:34:47.979Z,2.70
2023-04-24T19:39:52.015Z,3.40
2023-04-24T19:44:56.837Z,1.43
2023-04-24T19:50:01.348Z,2.37
2023-04-24T19:55:05.915Z,2.53
2023-04-24T20:00:12.940Z,1.70
2023-04-24T20:05:17.915Z,1.57
2023-04-24T20:10:22.277Z,1.90
2023-04-24T20:15:27.293Z,7.47
2023-04-24T20:20:31.817Z,8.70
2023-04-24T20:25:36.588Z,8.67
2023-04-24T20:30:43.472Z,15.57
2023-04-24T20:35:47.097Z,9.03
2023-04-24T20:40:57.868Z,4.13
2023-04-24T20:46:03.686Z,7.87
2023-04-24T20:51:07.034Z,3.60
2023-04-24T20:56:11.489Z,7.70
2023-04-24T21:01:16.577Z,5.00
2023-04-24T21:06:19.890Z,3.87
2023-04-24T21:11:23.344Z,2.60
2023-04-24T21:16:28.162Z,3.73
2023-04-24T21:21:32.174Z,2.37
2023-04-24T21:26:35.723Z,1.87
2023-04-24T21:31:40.420Z,5.90
2023-04-24T21:36:43.549Z,2.20
2023-04-24T21:41:47.657Z,2.60
2023-04-24T21:46:52.541Z,3.03
2023-04-24T21:51:55.786Z,6.20
2023-04-24T21:56:59.161Z,3.97
2023-04-24T22:02:03.829Z,3.00
2023-04-24T22:07:07.181Z,3.10
2023-04-24T22:12:10.467Z,7.10
2023-04-24T22:17:17.334Z,2.97
2023-04-24T22:22:22.124Z,3.00
2023-04-24T22:27:25.423Z,3.03
2023-04-24T22:32:32.962Z,4.20
2023-04-24T22:37:36.296Z,2.90
2023-04-24T22:42:39.426Z,2.57
2023-04-24T22:47:44.118Z,3.10
2023-04-24T22:52:47.655Z,2.63
2023-04-24T22:57:51.102Z,2.87
2023-04-24T23:02:55.790Z,3.87
2023-04-24T23:07:59.055Z,2.93
2023-04-24T23:13:02.063Z,3.30
2023-04-24T23:18:06.872Z,2.27
2023-04-24T23:23:10.228Z,2.03
2023-04-24T23:28:13.495Z,2.27
2023-04-24T23:33:18.050Z,3.30
2023-04-24T23:38:21.236Z,2.30
2023-04-24T23:43:24.519Z,2.37
2023-04-24T23:48:29.123Z,4.33
2023-04-24T23:53:32.333Z,3.90
2023-04-24T23:58:36.835Z,3.17
